sensor_id;sensor_type;location;lat;lon;timestamp;temperature;humidity
52435;DHT22;38354;52.892;6.148;2022-12-07T04:01:03;3.80;99.90
52435;DHT22;38354;52.892;6.148;2022-12-07T04:03:28;3.70;99.90
52435;DHT22;38354;52.892;6.148;2022-12-07T04:05:54;3.70;99.90
52435;DHT22;38354;52.892;6.148;2022-12-07T04:08:20;3.70;99.90
52435;DHT22;38354;52.892;6.148;2022-12-07T04:10:46;3.70;99.90
52435;DHT22;38354;52.892;6.148;2022-12-07T04:13:11;3.60;99.90
52435;DHT22;38354;52.892;6.148;2022-12-07T04:15:37;3.60;99.90
52435;DHT22;38354;52.892;6.148;2022-12-07T04:18:03;3.60;99.90
52435;DHT22;38354;52.892;6.148;2022-12-07T04:20:28;3.60;99.90
52435;DHT22;38354;52.892;6.148;2022-12-07T04:22:54;3.60;99.90
52435;DHT22;38354;52.892;6.148;2022-12-07T04:25:20;3.60;99.90
52435;DHT22;38354;52.892;6.148;2022-12-07T04:27:45;3.60;99.90
52435;DHT22;38354;52.892;6.148;2022-12-07T04:30:11;3.60;99.90
52435;DHT22;38354;52.892;6.148;2022-12-07T04:32:37;3.60;99.90
52435;DHT22;38354;52.892;6.148;2022-12-07T04:35:03;3.60;99.90
52435;DHT22;38354;52.892;6.148;2022-12-07T04:37:28;3.60;99.90
52435;DHT22;38354;52.892;6.148;2022-12-07T04:39:54;3.60;99.90
52435;DHT22;38354;52.892;6.148;2022-12-07T04:42:20;3.60;99.90
52435;DHT22;38354;52.892;6.148;2022-12-07T04:44:45;3.50;99.90
52435;DHT22;38354;52.892;6.148;2022-12-07T04:47:11;3.50;99.90
52435;DHT22;38354;52.892;6.148;2022-12-07T04:49:37;3.50;99.90
52435;DHT22;38354;52.892;6.148;2022-12-07T04:52:02;3.50;99.90
52435;DHT22;38354;52.892;6.148;2022-12-07T04:54:28;3.40;99.90
52435;DHT22;38354;52.892;6.148;2022-12-07T04:56:54;3.40;99.90
52435;DHT22;38354;52.892;6.148;2022-12-07T04:59:19;3.40;99.90
52435;DHT22;38354;52.892;6.148;2022-12-07T05:01:45;3.40;99.90
52435;DHT22;38354;52.892;6.148;2022-12-07T05:04:11;3.30;99.90
52435;DHT22;38354;52.892;6.148;2022-12-07T05:06:36;3.20;99.90
52435;DHT22;38354;52.892;6.148;2022-12-07T05:09:03;3.20;99.90
52435;DHT22;38354;52.892;6.148;2022-12-07T05:11:29;3.20;99.90
52435;DHT22;38354;52.892;6.148;2022-12-07T05:14:18;3.10;99.90
52435;DHT22;38354;52.892;6.148;2022-12-07T05:16:47;3.10;99.90
52435;DHT22;38354;52.892;6.148;2022-12-07T05:19:14;3.00;99.90
52435;DHT22;38354;52.892;6.148;2022-12-07T05:21:40;3.00;99.90
52435;DHT22;38354;52.892;6.148;2022-12-07T05:24:06;3.00;99.90
52435;DHT22;38354;52.892;6.148;2022-12-07T05:26:32;3.00;99.90
52435;DHT22;38354;52.892;6.148;2022-12-07T05:28:58;3.00;99.90
52435;DHT22;38354;52.892;6.148;2022-12-07T05:31:25;3.10;99.90
52435;DHT22;38354;52.892;6.148;2022-12-07T05:33:51;3.00;99.90
52435;DHT22;38354;52.892;6.148;2022-12-07T05:36:17;3.10;99.90
52435;DHT22;38354;52.892;6.148;2022-12-07T05:38:43;3.10;99.90
52435;DHT22;38354;52.892;6.148;2022-12-07T05:41:12;3.10;99.90
52435;DHT22;38354;52.892;6.148;2022-12-07T05:43:58;3.10;99.90
52435;DHT22;38354;52.892;6.148;2022-12-07T05:46:24;3.10;99.90
52435;DHT22;38354;52.892;6.148;2022-12-07T05:48:50;3.10;99.90
52435;DHT22;38354;52.892;6.148;2022-12-07T05:51:16;3.10;99.90
52435;DHT22;38354;52.892;6.148;2022-12-07T05:53:41;3.10;99.90
52435;DHT22;38354;52.892;6.148;2022-12-07T05:56:07;3.20;99.90
52435;DHT22;38354;52.892;6.148;2022-12-07T05:58:33;3.20;99.90
52435;DHT22;38354;52.892;6.148;2022-12-07T06:01:17;3.20;99.90
52435;DHT22;38354;52.892;6.148;2022-12-07T06:03:42;3.30;99.90
52435;DHT22;38354;52.892;6.148;2022-12-07T06:06:08;3.30;99.90
52435;DHT22;38354;52.892;6.148;2022-12-07T06:08:34;3.30;99.90
52435;DHT22;38354;52.892;6.148;2022-12-07T06:10:59;3.30;99.90
52435;DHT22;38354;52.892;6.148;2022-12-07T06:13:57;3.40;99.90
52435;DHT22;38354;52.892;6.148;2022-12-07T06:16:23;3.40;99.90
52435;DHT22;38354;52.892;6.148;2022-12-07T06:18:48;3.40;99.90
52435;DHT22;38354;52.892;6.148;2022-12-07T06:21:14;3.50;99.90
52435;DHT22;38354;52.892;6.148;2022-12-07T06:23:40;3.40;99.90
52435;DHT22;38354;52.892;6.148;2022-12-07T06:26:05;3.50;99.90
52435;DHT22;38354;52.892;6.148;2022-12-07T06:28:31;3.50;99.90
52435;DHT22;38354;52.892;6.148;2022-12-07T06:31:01;3.50;99.90
52435;DHT22;38354;52.892;6.148;2022-12-07T06:33:27;3.50;99.90
52435;DHT22;38354;52.892;6.148;2022-12-07T06:35:53;3.50;99.90
52435;DHT22;38354;52.892;6.148;2022-12-07T06:38:19;3.40;99.90
52435;DHT22;38354;52.892;6.148;2022-12-07T06:40:44;3.40;99.90
52435;DHT22;38354;52.892;6.148;2022-12-07T06:43:10;3.40;99.90
52435;DHT22;38354;52.892;6.148;2022-12-07T06:45:36;3.40;99.90
52435;DHT22;38354;52.892;6.148;2022-12-07T06:48:05;3.40;99.90
52435;DHT22;38354;52.892;6.148;2022-12-07T06:50:30;3.40;99.90
52435;DHT22;38354;52.892;6.148;2022-12-07T06:52:56;3.30;99.90
52435;DHT22;38354;52.892;6.148;2022-12-07T06:55:21;3.30;99.90
52435;DHT22;38354;52.892;6.148;2022-12-07T06:57:47;3.30;99.90
52435;DHT22;38354;52.892;6.148;2022-12-07T07:00:13;3.20;99.90
52435;DHT22;38354;52.892;6.148;2022-12-07T07:02:39;3.20;99.90
52435;DHT22;38354;52.892;6.148;2022-12-07T07:05:05;3.20;99.90
52435;DHT22;38354;52.892;6.148;2022-12-07T07:07:30;3.10;99.90
52435;DHT22;38354;52.892;6.148;2022-12-07T07:09:56;3.10;99.90
52435;DHT22;38354;52.892;6.148;2022-12-07T07:12:22;3.10;99.90
52435;DHT22;38354;52.892;6.148;2022-12-07T07:14:47;3.00;99.90
52435;DHT22;38354;52.892;6.148;2022-12-07T07:17:13;3.00;99.90
52435;DHT22;38354;52.892;6.148;2022-12-07T07:19:39;3.10;99.90
52435;DHT22;38354;52.892;6.148;2022-12-07T07:22:05;3.10;99.90
52435;DHT22;38354;52.892;6.148;2022-12-07T07:24:30;3.00;99.90
52435;DHT22;38354;52.892;6.148;2022-12-07T07:26:56;3.00;99.90
52435;DHT22;38354;52.892;6.148;2022-12-07T07:29:22;3.00;99.90
52435;DHT22;38354;52.892;6.148;2022-12-07T07:31:47;3.10;99.90
52435;DHT22;38354;52.892;6.148;2022-12-07T07:34:13;3.10;99.90
52435;DHT22;38354;52.892;6.148;2022-12-07T07:36:39;3.10;99.90
52435;DHT22;38354;52.892;6.148;2022-12-07T07:39:05;3.10;99.90
52435;DHT22;38354;52.892;6.148;2022-12-07T07:41:31;3.10;99.90
52435;DHT22;38354;52.892;6.148;2022-12-07T07:43:57;3.00;99.90
52435;DHT22;38354;52.892;6.148;2022-12-07T07:46:23;3.10;99.90
52435;DHT22;38354;52.892;6.148;2022-12-07T07:48:49;3.10;99.90
52435;DHT22;38354;52.892;6.148;2022-12-07T07:51:14;3.00;99.90
52435;DHT22;38354;52.892;6.148;2022-12-07T07:53:40;3.00;99.90
52435;DHT22;38354;52.892;6.148;2022-12-07T07:56:06;3.00;99.90
52435;DHT22;38354;52.892;6.148;2022-12-07T07:58:31;2.90;99.90
52435;DHT22;38354;52.892;6.148;2022-12-07T08:01:02;2.90;99.90
52435;DHT22;38354;52.892;6.148;2022-12-07T08:06:07;2.80;99.90
52435;DHT22;38354;52.892;6.148;2022-12-07T08:08:33;2.80;99.90
52435;DHT22;38354;52.892;6.148;2022-12-07T08:10:59;2.70;99.90
52435;DHT22;38354;52.892;6.148;2022-12-07T08:13:26;2.70;99.90
52435;DHT22;38354;52.892;6.148;2022-12-07T08:15:52;2.70;99.90
52435;DHT22;38354;52.892;6.148;2022-12-07T08:18:18;2.70;99.90
52435;DHT22;38354;52.892;6.148;2022-12-07T08:20:44;2.70;99.90
52435;DHT22;38354;52.892;6.148;2022-12-07T08:23:10;2.70;99.90
52435;DHT22;38354;52.892;6.148;2022-12-07T08:25:36;2.70;99.90
52435;DHT22;38354;52.892;6.148;2022-12-07T08:28:02;2.70;99.90
52435;DHT22;38354;52.892;6.148;2022-12-07T08:30:28;2.80;99.90
52435;DHT22;38354;52.892;6.148;2022-12-07T08:32:55;2.80;99.90
52435;DHT22;38354;52.892;6.148;2022-12-07T08:35:21;2.80;99.90
52435;DHT22;38354;52.892;6.148;2022-12-07T08:37:47;2.70;99.90
52435;DHT22;38354;52.892;6.148;2022-12-07T08:40:13;2.80;99.90
52435;DHT22;38354;52.892;6.148;2022-12-07T08:42:44;2.70;99.90
52435;DHT22;38354;52.892;6.148;2022-12-07T08:45:14;2.70;99.90
52435;DHT22;38354;52.892;6.148;2022-12-07T08:50:16;2.80;99.90
52435;DHT22;38354;52.892;6.148;2022-12-07T08:52:43;2.80;99.90
52435;DHT22;38354;52.892;6.148;2022-12-07T08:55:12;2.80;99.90
52435;DHT22;38354;52.892;6.148;2022-12-07T08:57:38;2.90;99.90
52435;DHT22;38354;52.892;6.148;2022-12-07T09:00:05;2.90;99.90
52435;DHT22;38354;52.892;6.148;2022-12-07T09:02:31;2.90;99.90
52435;DHT22;38354;52.892;6.148;2022-12-07T09:04:57;2.90;99.90
52435;DHT22;38354;52.892;6.148;2022-12-07T09:07:23;3.00;99.90
52435;DHT22;38354;52.892;6.148;2022-12-07T09:09:49;3.00;99.90
52435;DHT22;38354;52.892;6.148;2022-12-07T09:12:15;3.00;99.90
52435;DHT22;38354;52.892;6.148;2022-12-07T09:14:40;3.10;99.90
52435;DHT22;38354;52.892;6.148;2022-12-07T09:17:08;3.30;99.90
52435;DHT22;38354;52.892;6.148;2022-12-07T09:19:34;3.40;99.90
52435;DHT22;38354;52.892;6.148;2022-12-07T09:21:59;3.50;99.90
52435;DHT22;38354;52.892;6.148;2022-12-07T09:24:25;3.60;99.90
52435;DHT22;38354;52.892;6.148;2022-12-07T09:26:50;3.70;99.90
52435;DHT22;38354;52.892;6.148;2022-12-07T09:29:16;3.80;99.90
52435;DHT22;38354;52.892;6.148;2022-12-07T09:31:42;3.90;99.90
52435;DHT22;38354;52.892;6.148;2022-12-07T09:34:07;3.90;99.90
52435;DHT22;38354;52.892;6.148;2022-12-07T09:36:33;4.00;99.90
52435;DHT22;38354;52.892;6.148;2022-12-07T09:38:59;4.00;99.90
52435;DHT22;38354;52.892;6.148;2022-12-07T09:41:27;4.00;99.90
52435;DHT22;38354;52.892;6.148;2022-12-07T09:43:58;4.10;99.90
52435;DHT22;38354;52.892;6.148;2022-12-07T09:46:28;4.00;99.90
52435;DHT22;38354;52.892;6.148;2022-12-07T09:48:56;4.10;99.90
52435;DHT22;38354;52.892;6.148;2022-12-07T09:51:23;4.10;99.90
52435;DHT22;38354;52.892;6.148;2022-12-07T09:53:51;4.10;99.90
52435;DHT22;38354;52.892;6.148;2022-12-07T09:56:18;4.20;99.90
52435;DHT22;38354;52.892;6.148;2022-12-07T09:58:44;4.30;99.90
52435;DHT22;38354;52.892;6.148;2022-12-07T10:01:15;4.40;99.90
52435;DHT22;38354;52.892;6.148;2022-12-07T10:03:55;4.50;99.90
52435;DHT22;38354;52.892;6.148;2022-12-07T10:06:21;4.60;99.90
52435;DHT22;38354;52.892;6.148;2022-12-07T10:08:47;4.80;99.90
52435;DHT22;38354;52.892;6.148;2022-12-07T10:11:13;5.00;99.90
52435;DHT22;38354;52.892;6.148;2022-12-07T10:16:31;5.20;99.90
52435;DHT22;38354;52.892;6.148;2022-12-07T10:22:05;5.20;99.90
52435;DHT22;38354;52.892;6.148;2022-12-07T10:24:34;5.20;99.90
52435;DHT22;38354;52.892;6.148;2022-12-07T10:26:59;5.20;99.90
52435;DHT22;38354;52.892;6.148;2022-12-07T10:29:34;5.20;99.90
52435;DHT22;38354;52.892;6.148;2022-12-07T10:32:21;5.10;99.90
52435;DHT22;38354;52.892;6.148;2022-12-07T10:34:50;5.00;99.90
52435;DHT22;38354;52.892;6.148;2022-12-07T10:37:19;5.00;99.90
52435;DHT22;38354;52.892;6.148;2022-12-07T10:39:57;4.90;99.90
52435;DHT22;38354;52.892;6.148;2022-12-07T10:42:26;4.90;99.90
52435;DHT22;38354;52.892;6.148;2022-12-07T10:59:10;5.00;99.90
52435;DHT22;38354;52.892;6.148;2022-12-07T11:01:45;5.10;99.90
52435;DHT22;38354;52.892;6.148;2022-12-07T11:04:38;5.10;99.90
52435;DHT22;38354;52.892;6.148;2022-12-07T11:07:34;5.20;99.90
52435;DHT22;38354;52.892;6.148;2022-12-07T11:13:04;5.50;99.90
52435;DHT22;38354;52.892;6.148;2022-12-07T11:16:01;5.60;99.90
52435;DHT22;38354;52.892;6.148;2022-12-07T11:32:40;5.50;99.90
52435;DHT22;38354;52.892;6.148;2022-12-07T11:38:01;5.40;99.90
52435;DHT22;38354;52.892;6.148;2022-12-07T11:40:36;5.40;99.90
52435;DHT22;38354;52.892;6.148;2022-12-07T11:43:24;5.30;99.90
52435;DHT22;38354;52.892;6.148;2022-12-07T11:46:04;5.30;99.90
52435;DHT22;38354;52.892;6.148;2022-12-07T11:49:13;5.30;99.90
52435;DHT22;38354;52.892;6.148;2022-12-07T11:51:38;5.40;99.90
52435;DHT22;38354;52.892;6.148;2022-12-07T11:54:27;5.50;99.90
52435;DHT22;38354;52.892;6.148;2022-12-07T11:56:56;5.80;99.90
52435;DHT22;38354;52.892;6.148;2022-12-07T11:59:28;6.00;99.90
52435;DHT22;38354;52.892;6.148;2022-12-07T12:02:00;6.30;99.90
52435;DHT22;38354;52.892;6.148;2022-12-07T12:04:31;6.50;99.90
52435;DHT22;38354;52.892;6.148;2022-12-07T12:06:58;6.60;99.90
52435;DHT22;38354;52.892;6.148;2022-12-07T12:12:45;6.60;99.90
52435;DHT22;38354;52.892;6.148;2022-12-07T12:24:05;6.40;99.90
52435;DHT22;38354;52.892;6.148;2022-12-07T12:26:36;6.60;99.90
52435;DHT22;38354;52.892;6.148;2022-12-07T12:29:06;6.50;99.90
52435;DHT22;38354;52.892;6.148;2022-12-07T12:31:37;6.60;99.90
52435;DHT22;38354;52.892;6.148;2022-12-07T12:36:55;6.70;99.90
52435;DHT22;38354;52.892;6.148;2022-12-07T12:39:21;6.80;99.90
52435;DHT22;38354;52.892;6.148;2022-12-07T12:46:58;6.70;99.90
52435;DHT22;38354;52.892;6.148;2022-12-07T12:51:51;6.50;99.90
52435;DHT22;38354;52.892;6.148;2022-12-07T12:59:33;6.30;99.90
52435;DHT22;38354;52.892;6.148;2022-12-07T13:04:51;6.20;99.90
52435;DHT22;38354;52.892;6.148;2022-12-07T13:15:48;6.40;99.90
52435;DHT22;38354;52.892;6.148;2022-12-07T13:26:26;6.20;99.90
52435;DHT22;38354;52.892;6.148;2022-12-07T13:34:02;5.90;99.90
52435;DHT22;38354;52.892;6.148;2022-12-07T13:36:34;5.80;99.90
52435;DHT22;38354;52.892;6.148;2022-12-07T13:41:42;5.60;99.90
52435;DHT22;38354;52.892;6.148;2022-12-07T13:44:16;5.50;99.90
52435;DHT22;38354;52.892;6.148;2022-12-07T13:49:32;5.40;99.90
52435;DHT22;38354;52.892;6.148;2022-12-07T13:52:14;5.30;99.90
52435;DHT22;38354;52.892;6.148;2022-12-07T13:57:16;5.20;99.90
52435;DHT22;38354;52.892;6.148;2022-12-07T13:59:42;5.20;99.90
52435;DHT22;38354;52.892;6.148;2022-12-07T14:02:31;5.10;99.90
52435;DHT22;38354;52.892;6.148;2022-12-07T14:13:39;5.00;99.90
52435;DHT22;38354;52.892;6.148;2022-12-07T14:18:44;5.00;99.90
52435;DHT22;38354;52.892;6.148;2022-12-07T14:23:37;5.00;99.90
52435;DHT22;38354;52.892;6.148;2022-12-07T14:26:19;5.00;99.90
52435;DHT22;38354;52.892;6.148;2022-12-07T14:28:45;5.00;99.90
52435;DHT22;38354;52.892;6.148;2022-12-07T14:31:14;5.00;99.90
52435;DHT22;38354;52.892;6.148;2022-12-07T14:33:41;5.00;99.90
52435;DHT22;38354;52.892;6.148;2022-12-07T14:36:14;5.00;99.90
52435;DHT22;38354;52.892;6.148;2022-12-07T14:38:39;5.00;99.90
52435;DHT22;38354;52.892;6.148;2022-12-07T14:41:17;5.00;99.90
52435;DHT22;38354;52.892;6.148;2022-12-07T14:44:12;5.00;99.90
52435;DHT22;38354;52.892;6.148;2022-12-07T14:46:38;4.90;99.90
52435;DHT22;38354;52.892;6.148;2022-12-07T14:49:03;4.80;99.90
52435;DHT22;38354;52.892;6.148;2022-12-07T14:51:29;4.60;99.90
52435;DHT22;38354;52.892;6.148;2022-12-07T14:53:55;4.60;99.90
52435;DHT22;38354;52.892;6.148;2022-12-07T14:56:20;4.50;99.90
52435;DHT22;38354;52.892;6.148;2022-12-07T14:58:46;4.40;99.90
52435;DHT22;38354;52.892;6.148;2022-12-07T15:01:13;4.40;99.90
52435;DHT22;38354;52.892;6.148;2022-12-07T15:03:42;4.40;99.90
52435;DHT22;38354;52.892;6.148;2022-12-07T15:06:10;4.40;99.90
52435;DHT22;38354;52.892;6.148;2022-12-07T15:08:38;4.40;99.90
52435;DHT22;38354;52.892;6.148;2022-12-07T15:11:03;4.30;99.90
52435;DHT22;38354;52.892;6.148;2022-12-07T15:13:29;4.30;99.90
52435;DHT22;38354;52.892;6.148;2022-12-07T15:16:18;4.30;99.90
52435;DHT22;38354;52.892;6.148;2022-12-07T15:18:44;4.20;99.90
52435;DHT22;38354;52.892;6.148;2022-12-07T15:21:14;4.20;99.90
52435;DHT22;38354;52.892;6.148;2022-12-07T15:23:40;4.20;99.90
52435;DHT22;38354;52.892;6.148;2022-12-07T15:26:06;4.20;99.90
52435;DHT22;38354;52.892;6.148;2022-12-07T15:28:33;4.10;99.90
52435;DHT22;38354;52.892;6.148;2022-12-07T15:30:59;4.10;99.90
52435;DHT22;38354;52.892;6.148;2022-12-07T15:33:25;4.10;99.90
52435;DHT22;38354;52.892;6.148;2022-12-07T15:35:50;4.00;99.90
52435;DHT22;38354;52.892;6.148;2022-12-07T15:38:16;4.00;99.90
52435;DHT22;38354;52.892;6.148;2022-12-07T15:40:41;3.90;99.90
52435;DHT22;38354;52.892;6.148;2022-12-07T15:43:09;3.90;99.90
52435;DHT22;38354;52.892;6.148;2022-12-07T15:45:54;3.90;99.90
52435;DHT22;38354;52.892;6.148;2022-12-07T15:48:20;3.90;99.90
52435;DHT22;38354;52.892;6.148;2022-12-07T15:50:46;3.80;99.90
52435;DHT22;38354;52.892;6.148;2022-12-07T15:53:11;3.80;99.90
52435;DHT22;38354;52.892;6.148;2022-12-07T15:55:40;3.80;99.90
52435;DHT22;38354;52.892;6.148;2022-12-07T15:58:06;3.70;99.90
52435;DHT22;38354;52.892;6.148;2022-12-07T16:00:32;3.70;99.90
52435;DHT22;38354;52.892;6.148;2022-12-07T16:02:58;3.70;99.90
52435;DHT22;38354;52.892;6.148;2022-12-07T16:05:24;3.70;99.90
52435;DHT22;38354;52.892;6.148;2022-12-07T16:07:49;3.70;99.90
52435;DHT22;38354;52.892;6.148;2022-12-07T16:10:15;3.70;99.90
52435;DHT22;38354;52.892;6.148;2022-12-07T16:12:41;3.70;99.90
52435;DHT22;38354;52.892;6.148;2022-12-07T16:15:07;3.60;99.90
52435;DHT22;38354;52.892;6.148;2022-12-07T16:17:33;3.70;99.90
52435;DHT22;38354;52.892;6.148;2022-12-07T16:19:58;3.70;99.90
52435;DHT22;38354;52.892;6.148;2022-12-07T16:22:24;3.70;99.90
52435;DHT22;38354;52.892;6.148;2022-12-07T16:24:49;3.70;99.90
52435;DHT22;38354;52.892;6.148;2022-12-07T16:27:15;3.70;99.90
52435;DHT22;38354;52.892;6.148;2022-12-07T16:29:41;3.70;99.90
52435;DHT22;38354;52.892;6.148;2022-12-07T16:32:06;3.70;99.90
52435;DHT22;38354;52.892;6.148;2022-12-07T16:34:32;3.70;99.90
52435;DHT22;38354;52.892;6.148;2022-12-07T16:36:58;3.70;99.90
52435;DHT22;38354;52.892;6.148;2022-12-07T16:39:26;3.70;99.90
52435;DHT22;38354;52.892;6.148;2022-12-07T16:41:52;3.70;99.90
52435;DHT22;38354;52.892;6.148;2022-12-07T16:44:18;3.70;99.90
52435;DHT22;38354;52.892;6.148;2022-12-07T16:46:44;3.60;99.90
52435;DHT22;38354;52.892;6.148;2022-12-07T16:49:12;3.70;99.90
52435;DHT22;38354;52.892;6.148;2022-12-07T16:51:38;3.60;99.90
52435;DHT22;38354;52.892;6.148;2022-12-07T16:54:04;3.60;99.90
52435;DHT22;38354;52.892;6.148;2022-12-07T16:56:30;3.60;99.90
52435;DHT22;38354;52.892;6.148;2022-12-07T16:58:58;3.50;99.90
52435;DHT22;38354;52.892;6.148;2022-12-07T17:01:24;3.50;99.90
52435;DHT22;38354;52.892;6.148;2022-12-07T17:03:50;3.50;99.90
52435;DHT22;38354;52.892;6.148;2022-12-07T17:06:21;3.50;99.90
52435;DHT22;38354;52.892;6.148;2022-12-07T17:08:48;3.50;99.90
52435;DHT22;38354;52.892;6.148;2022-12-07T17:11:19;3.50;99.90
52435;DHT22;38354;52.892;6.148;2022-12-07T17:13:45;3.40;99.90
52435;DHT22;38354;52.892;6.148;2022-12-07T17:16:30;3.40;99.90
52435;DHT22;38354;52.892;6.148;2022-12-07T17:18:56;3.30;99.90
52435;DHT22;38354;52.892;6.148;2022-12-07T17:21:22;3.30;99.90
52435;DHT22;38354;52.892;6.148;2022-12-07T17:23:48;3.30;99.90
52435;DHT22;38354;52.892;6.148;2022-12-07T17:26:21;3.30;99.90
52435;DHT22;38354;52.892;6.148;2022-12-07T17:28:47;3.30;99.90
52435;DHT22;38354;52.892;6.148;2022-12-07T17:31:15;3.30;99.90
52435;DHT22;38354;52.892;6.148;2022-12-07T17:33:41;3.20;99.90
52435;DHT22;38354;52.892;6.148;2022-12-07T17:36:12;3.30;99.90
52435;DHT22;38354;52.892;6.148;2022-12-07T17:38:39;3.20;99.90
52435;DHT22;38354;52.892;6.148;2022-12-07T17:41:14;3.20;99.90
52435;DHT22;38354;52.892;6.148;2022-12-07T17:44:05;3.20;99.90
52435;DHT22;38354;52.892;6.148;2022-12-07T17:46:31;3.20;99.90
52435;DHT22;38354;52.892;6.148;2022-12-07T17:48:58;3.20;99.90
52435;DHT22;38354;52.892;6.148;2022-12-07T17:51:24;3.30;99.90
52435;DHT22;38354;52.892;6.148;2022-12-07T17:54:09;3.20;99.90
52435;DHT22;38354;52.892;6.148;2022-12-07T17:56:35;3.20;99.90
52435;DHT22;38354;52.892;6.148;2022-12-07T17:59:01;3.30;99.90
52435;DHT22;38354;52.892;6.148;2022-12-07T18:01:26;3.30;99.90
52435;DHT22;38354;52.892;6.148;2022-12-07T18:03:52;3.30;99.90
52435;DHT22;38354;52.892;6.148;2022-12-07T18:06:18;3.30;99.90
52435;DHT22;38354;52.892;6.148;2022-12-07T18:08:44;3.30;99.90
52435;DHT22;38354;52.892;6.148;2022-12-07T18:11:09;3.30;99.90
52435;DHT22;38354;52.892;6.148;2022-12-07T18:13:35;3.20;99.90
52435;DHT22;38354;52.892;6.148;2022-12-07T18:16:10;3.20;99.90
52435;DHT22;38354;52.892;6.148;2022-12-07T18:18:37;3.20;99.90
52435;DHT22;38354;52.892;6.148;2022-12-07T18:21:08;3.20;99.90
52435;DHT22;38354;52.892;6.148;2022-12-07T18:23:38;3.20;99.90
52435;DHT22;38354;52.892;6.148;2022-12-07T18:26:04;3.20;99.90
52435;DHT22;38354;52.892;6.148;2022-12-07T18:28:29;3.20;99.90
52435;DHT22;38354;52.892;6.148;2022-12-07T18:30:56;3.20;99.90
52435;DHT22;38354;52.892;6.148;2022-12-07T18:33:21;3.20;99.90
52435;DHT22;38354;52.892;6.148;2022-12-07T18:35:47;3.20;99.90
52435;DHT22;38354;52.892;6.148;2022-12-07T18:38:13;3.20;99.90
52435;DHT22;38354;52.892;6.148;2022-12-07T18:40:40;3.20;99.90
52435;DHT22;38354;52.892;6.148;2022-12-07T18:43:07;3.10;99.90
52435;DHT22;38354;52.892;6.148;2022-12-07T18:45:36;3.10;99.90
52435;DHT22;38354;52.892;6.148;2022-12-07T18:48:03;3.10;99.90
52435;DHT22;38354;52.892;6.148;2022-12-07T18:50:29;3.10;99.90
52435;DHT22;38354;52.892;6.148;2022-12-07T18:53:03;3.00;99.90
52435;DHT22;38354;52.892;6.148;2022-12-07T18:55:29;3.00;99.90
52435;DHT22;38354;52.892;6.148;2022-12-07T18:57:56;3.00;99.90
52435;DHT22;38354;52.892;6.148;2022-12-07T19:00:22;3.00;99.90
52435;DHT22;38354;52.892;6.148;2022-12-07T19:02:49;3.00;99.90
52435;DHT22;38354;52.892;6.148;2022-12-07T19:05:15;3.00;99.90
52435;DHT22;38354;52.892;6.148;2022-12-07T19:07:42;3.00;99.90
52435;DHT22;38354;52.892;6.148;2022-12-07T19:10:08;3.00;99.90
52435;DHT22;38354;52.892;6.148;2022-12-07T19:12:34;2.90;99.90
52435;DHT22;38354;52.892;6.148;2022-12-07T19:15:00;2.90;99.90
52435;DHT22;38354;52.892;6.148;2022-12-07T19:17:26;2.90;99.90
52435;DHT22;38354;52.892;6.148;2022-12-07T19:19:52;2.90;99.90
52435;DHT22;38354;52.892;6.148;2022-12-07T19:22:19;2.90;99.90
52435;DHT22;38354;52.892;6.148;2022-12-07T19:24:48;2.90;99.90
52435;DHT22;38354;52.892;6.148;2022-12-07T19:27:14;2.80;99.90
52435;DHT22;38354;52.892;6.148;2022-12-07T19:29:41;2.80;99.90
52435;DHT22;38354;52.892;6.148;2022-12-07T19:32:07;2.90;99.90
52435;DHT22;38354;52.892;6.148;2022-12-07T19:34:35;2.80;99.90
52435;DHT22;38354;52.892;6.148;2022-12-07T19:37:01;2.80;99.90
52435;DHT22;38354;52.892;6.148;2022-12-07T19:39:27;2.80;99.90
52435;DHT22;38354;52.892;6.148;2022-12-07T19:41:55;2.80;99.90
52435;DHT22;38354;52.892;6.148;2022-12-07T19:44:22;2.80;99.90
52435;DHT22;38354;52.892;6.148;2022-12-07T19:46:51;2.80;99.90
52435;DHT22;38354;52.892;6.148;2022-12-07T19:49:18;2.80;99.90
52435;DHT22;38354;52.892;6.148;2022-12-07T19:51:46;2.80;99.90
52435;DHT22;38354;52.892;6.148;2022-12-07T19:54:13;2.80;99.90
52435;DHT22;38354;52.892;6.148;2022-12-07T19:56:40;2.80;99.90
52435;DHT22;38354;52.892;6.148;2022-12-07T19:59:06;2.80;99.90
52435;DHT22;38354;52.892;6.148;2022-12-07T20:01:32;2.80;99.90
52435;DHT22;38354;52.892;6.148;2022-12-07T20:03:58;2.80;99.90
52435;DHT22;38354;52.892;6.148;2022-12-07T20:06:25;2.80;99.90
52435;DHT22;38354;52.892;6.148;2022-12-07T20:08:51;2.80;99.90
52435;DHT22;38354;52.892;6.148;2022-12-07T20:11:18;2.80;99.90
52435;DHT22;38354;52.892;6.148;2022-12-07T20:14:08;2.80;99.90
52435;DHT22;38354;52.892;6.148;2022-12-07T20:16:34;2.80;99.90
52435;DHT22;38354;52.892;6.148;2022-12-07T20:19:00;2.80;99.90
52435;DHT22;38354;52.892;6.148;2022-12-07T20:21:26;2.90;99.90
52435;DHT22;38354;52.892;6.148;2022-12-07T20:23:52;2.90;99.90
52435;DHT22;38354;52.892;6.148;2022-12-07T20:26:18;3.00;99.90
52435;DHT22;38354;52.892;6.148;2022-12-07T20:28:44;3.00;99.90
52435;DHT22;38354;52.892;6.148;2022-12-07T20:31:14;3.10;99.90
52435;DHT22;38354;52.892;6.148;2022-12-07T20:33:41;3.10;99.90
52435;DHT22;38354;52.892;6.148;2022-12-07T20:36:11;3.10;99.90
52435;DHT22;38354;52.892;6.148;2022-12-07T20:38:37;3.20;99.90
52435;DHT22;38354;52.892;6.148;2022-12-07T20:41:05;3.20;99.90
52435;DHT22;38354;52.892;6.148;2022-12-07T20:43:32;3.20;99.90
52435;DHT22;38354;52.892;6.148;2022-12-07T20:45:58;3.20;99.90
52435;DHT22;38354;52.892;6.148;2022-12-07T20:48:23;3.20;99.90
52435;DHT22;38354;52.892;6.148;2022-12-07T20:50:49;3.20;99.90
52435;DHT22;38354;52.892;6.148;2022-12-07T20:55:51;3.20;99.90
52435;DHT22;38354;52.892;6.148;2022-12-07T20:58:17;3.20;99.90
52435;DHT22;38354;52.892;6.148;2022-12-07T21:00:42;3.20;99.90
52435;DHT22;38354;52.892;6.148;2022-12-07T21:03:08;3.20;99.90
52435;DHT22;38354;52.892;6.148;2022-12-07T21:05:34;3.20;99.90
52435;DHT22;38354;52.892;6.148;2022-12-07T21:08:00;3.30;99.90
52435;DHT22;38354;52.892;6.148;2022-12-07T21:10:26;3.30;99.90
52435;DHT22;38354;52.892;6.148;2022-12-07T21:12:51;3.30;99.90
52435;DHT22;38354;52.892;6.148;2022-12-07T21:15:17;3.40;99.90
52435;DHT22;38354;52.892;6.148;2022-12-07T21:17:42;3.40;99.90
52435;DHT22;38354;52.892;6.148;2022-12-07T21:20:08;3.40;99.90
52435;DHT22;38354;52.892;6.148;2022-12-07T21:22:35;3.40;99.90
52435;DHT22;38354;52.892;6.148;2022-12-07T21:25:01;3.40;99.90
52435;DHT22;38354;52.892;6.148;2022-12-07T21:27:27;3.40;99.90
52435;DHT22;38354;52.892;6.148;2022-12-07T21:29:52;3.40;99.90
52435;DHT22;38354;52.892;6.148;2022-12-07T21:32:18;3.40;99.90
52435;DHT22;38354;52.892;6.148;2022-12-07T21:34:43;3.40;99.90
52435;DHT22;38354;52.892;6.148;2022-12-07T21:37:09;3.40;99.90
52435;DHT22;38354;52.892;6.148;2022-12-07T21:39:35;3.40;99.90
52435;DHT22;38354;52.892;6.148;2022-12-07T21:42:00;3.40;99.90
52435;DHT22;38354;52.892;6.148;2022-12-07T21:44:26;3.40;99.90
52435;DHT22;38354;52.892;6.148;2022-12-07T21:46:52;3.40;99.90
52435;DHT22;38354;52.892;6.148;2022-12-07T21:49:18;3.40;99.90
52435;DHT22;38354;52.892;6.148;2022-12-07T21:51:43;3.40;99.90